Time;durP1;ratioP1;P1;durP2;ratioP2;P2;SDS_P1;SDS_P2;PMS_P1;PMS_P2;Temp;Humidity;BMP_temperature;BMP_pressure;BME280_temperature;BME280_humidity;BME280_pressure;Samples;Min_cycle;Max_cycle;Signal;HPM_P1;HPM_P2
2022/09/21 00:00:48;;;;;;;;;;;;;;;17.68;53.40;100844.03;5015644;28;1143;-58
2022/09/21 00:03:13;;;;;;;;;;;;;;;17.01;54.85;100842.22;5016613;28;1195;-58
2022/09/21 00:05:39;;;;;;;;;;;;;;;16.62;55.78;100847.34;5014809;28;1179;-58
2022/09/21 00:08:04;;;;;;;;;;;;;;;16.48;55.56;100838.81;5015748;28;908;-58
2022/09/21 00:10:30;;;;;;;;;;;;;;;16.34;55.59;100844.81;5015456;28;1910;-58
2022/09/21 00:12:55;;;;;;;;;;;;;;;17.41;54.13;100840.50;5015706;28;1183;-58
2022/09/21 00:15:21;;;;;;;;;;;;;;;17.22;54.27;100839.44;5016190;28;1139;-59
2022/09/21 00:17:46;;;;;;;;;;;;;;;16.73;55.37;100846.25;5015385;28;1159;-58
2022/09/21 00:20:13;;;;;;;;;;;;;;;16.50;55.60;100837.44;5015903;28;872;-59
2022/09/21 00:22:38;;;;;;;;;;;;;;;16.36;55.99;100837.13;5007265;28;1156;-60
2022/09/21 00:25:04;;;;;;;;;;;;;;;16.22;56.11;100836.81;5014344;28;1128;-60
2022/09/21 00:27:29;;;;;;;;;;;;;;;16.22;55.96;100836.00;5015512;28;1179;-59
2022/09/21 00:29:55;;;;;;;;;;;;;;;17.68;53.72;100838.53;5015405;28;1954;-61
2022/09/21 00:32:21;;;;;;;;;;;;;;;16.82;55.35;100841.88;5015519;28;857;-60
2022/09/21 00:34:46;;;;;;;;;;;;;;;16.52;55.74;100846.25;4998401;28;1231;-60
2022/09/21 00:37:12;;;;;;;;;;;;;;;16.34;56.09;100839.34;5015649;28;1222;-60
2022/09/21 00:39:37;;;;;;;;;;;;;;;16.22;56.09;100844.25;5019089;28;1167;-60
2022/09/21 00:42:09;;;;;;;;;;;;;;;16.92;55.29;100854.84;5019238;28;1168;-60
2022/09/21 00:44:34;;;;;;;;;;;;;;;17.45;54.05;100858.09;5019080;28;922;-60
2022/09/21 00:47:08;;;;;;;;;;;;;;;16.80;55.32;100856.97;5018770;28;1163;-59
2022/09/21 00:49:34;;;;;;;;;;;;;;;16.51;55.75;100852.81;5001751;28;1906;-59
2022/09/21 00:52:00;;;;;;;;;;;;;;;16.33;55.84;100854.16;5019069;28;1168;-59
2022/09/21 00:54:27;;;;;;;;;;;;;;;17.41;54.54;100851.50;5001461;28;1171;-59
2022/09/21 00:56:53;;;;;;;;;;;;;;;17.20;54.57;100845.19;5001236;28;894;-60
2022/09/21 00:59:19;;;;;;;;;;;;;;;16.75;55.66;100863.31;5001172;28;1155;-58
2022/09/21 01:01:45;;;;;;;;;;;;;;;16.50;56.11;100844.88;5019181;28;1164;-59
2022/09/21 01:04:10;;;;;;;;;;;;;;;16.38;56.02;100843.19;5018450;28;1116;-60
2022/09/21 01:06:36;;;;;;;;;;;;;;;16.27;55.65;100849.75;5001375;28;1155;-59
2022/09/21 01:09:01;;;;;;;;;;;;;;;17.33;54.53;100849.31;5017768;28;1967;-59
2022/09/21 01:11:27;;;;;;;;;;;;;;;17.07;55.29;100846.59;5018902;28;1163;-59
2022/09/21 01:13:59;;;;;;;;;;;;;;;16.65;55.79;100847.63;5018686;28;1179;-59
2022/09/21 01:16:26;;;;;;;;;;;;;;;16.41;56.18;100850.03;5000632;28;1188;-59
2022/09/21 01:18:52;;;;;;;;;;;;;;;16.29;55.98;100842.06;5000455;28;1160;-59
2022/09/21 01:21:43;;;;;;;;;;;;;;;16.89;55.58;100850.72;5018255;28;1155;-59
2022/09/21 01:24:15;;;;;;;;;;;;;;;17.30;54.59;100849.88;5008420;28;1446;-59
2022/09/21 01:26:56;;;;;;;;;;;;;;;16.71;56.02;100841.03;5018559;28;1202;-60
2022/09/21 01:29:22;;;;;;;;;;;;;;;16.47;56.05;100835.25;5017737;28;1969;-59
2022/09/21 01:31:48;;;;;;;;;;;;;;;16.32;56.04;100836.03;5000431;28;1183;-59
2022/09/21 01:34:16;;;;;;;;;;;;;;;16.87;55.93;100841.06;5018049;28;1132;-59
2022/09/21 01:36:41;;;;;;;;;;;;;;;17.35;54.39;100836.13;5000611;28;1227;-59
2022/09/21 01:39:08;;;;;;;;;;;;;;;16.71;55.96;100837.47;5000206;28;1155;-59
2022/09/21 01:41:34;;;;;;;;;;;;;;;16.48;56.16;100827.81;5001098;28;1230;-59
2022/09/21 01:44:07;;;;;;;;;;;;;;;16.32;55.95;100829.72;5017872;28;1207;-60
2022/09/21 01:46:33;;;;;;;;;;;;;;;16.21;55.96;100837.91;5018190;28;1200;-59
2022/09/21 01:48:59;;;;;;;;;;;;;;;17.21;55.03;100829.56;5017017;28;1910;-58
2022/09/21 01:51:25;;;;;;;;;;;;;;;17.18;54.93;100822.69;5017951;28;1218;-59
2022/09/21 01:53:52;;;;;;;;;;;;;;;16.66;56.12;100834.72;5000412;28;1191;-59
2022/09/21 01:56:19;;;;;;;;;;;;;;;16.45;56.15;100822.88;5017842;28;1230;-60
2022/09/21 01:58:46;;;;;;;;;;;;;;;16.31;56.19;100820.66;5000109;28;1206;-59
2022/09/21 02:01:13;;;;;;;;;;;;;;;17.54;54.38;100816.28;5000133;28;1191;-59
2022/09/21 02:03:40;;;;;;;;;;;;;;;16.98;55.60;100818.00;5000631;28;1144;-59
2022/09/21 02:06:05;;;;;;;;;;;;;;;16.58;56.23;100811.41;5017700;28;1171;-59
2022/09/21 02:08:31;;;;;;;;;;;;;;;16.40;56.26;100816.28;4999391;28;1215;-59
2022/09/21 02:10:56;;;;;;;;;;;;;;;16.32;55.88;100814.06;5017284;28;1992;-59
2022/09/21 02:13:24;;;;;;;;;;;;;;;16.53;56.37;100825.09;5017465;28;1199;-59
2022/09/21 02:16:08;;;;;;;;;;;;;;;17.51;54.20;100817.66;4999772;28;1270;-59
2022/09/21 02:18:39;;;;;;;;;;;;;;;16.74;55.78;100820.47;5017698;28;1222;-59
2022/09/21 02:21:04;;;;;;;;;;;;;;;16.41;56.28;100823.44;5017213;28;1124;-59
2022/09/21 02:23:44;;;;;;;;;;;;;;;16.33;56.15;100821.22;5017126;28;1148;-59
2022/09/21 02:26:12;;;;;;;;;;;;;;;17.63;54.27;100814.63;5017135;28;1148;-59
2022/09/21 02:28:51;;;;;;;;;;;;;;;16.76;55.82;100819.09;5010188;28;1132;-59
2022/09/21 02:31:24;;;;;;;;;;;;;;;16.51;56.09;100828.13;5015805;28;1910;-59
2022/09/21 02:33:58;;;;;;;;;;;;;;;16.34;56.01;100814.66;5015565;28;862;-59
2022/09/21 02:36:30;;;;;;;;;;;;;;;16.25;56.05;100813.50;5015762;28;1160;-59
2022/09/21 02:39:02;;;;;;;;;;;;;;;17.62;54.30;100815.72;5015529;28;1238;-59
2022/09/21 02:41:29;;;;;;;;;;;;;;;16.88;55.88;100813.34;5016054;28;1156;-60
2022/09/21 02:44:01;;;;;;;;;;;;;;;16.53;56.31;100820.44;5015485;28;1242;-61
2022/09/21 02:46:30;;;;;;;;;;;;;;;16.39;56.40;100817.38;5016788;28;1119;-60
2022/09/21 02:48:57;;;;;;;;;;;;;;;16.26;56.15;100820.66;5016959;28;1230;-59
2022/09/21 02:51:33;;;;;;;;;;;;;;;16.35;56.44;100830.00;5016068;28;1214;-59
2022/09/21 02:53:59;;;;;;;;;;;;;;;17.74;53.83;100829.97;5016979;28;1230;-60
2022/09/21 02:56:24;;;;;;;;;;;;;;;16.85;56.02;100832.28;5015305;28;1184;-59
2022/09/21 02:58:53;;;;;;;;;;;;;;;16.51;56.31;100830.03;5016778;28;1147;-59
2022/09/21 03:01:18;;;;;;;;;;;;;;;16.41;56.21;100822.59;5014797;28;1230;-60
2022/09/21 03:03:44;;;;;;;;;;;;;;;16.66;56.20;100823.75;5015907;28;1188;-60
2022/09/21 03:06:09;;;;;;;;;;;;;;;17.72;53.71;100828.63;5016436;28;1124;-57
2022/09/21 03:08:35;;;;;;;;;;;;;;;16.86;55.86;100828.44;5016731;28;1195;-63
2022/09/21 03:11:01;;;;;;;;;;;;;;;16.57;56.23;100828.94;5016735;28;1918;-62
2022/09/21 03:13:27;;;;;;;;;;;;;;;16.43;56.00;100832.22;5016031;28;1202;-62
2022/09/21 03:16:03;;;;;;;;;;;;;;;16.33;55.99;100826.72;5015359;28;1164;-60
2022/09/21 03:18:28;;;;;;;;;;;;;;;17.09;55.50;100827.91;5016451;28;1171;-60
2022/09/21 03:20:54;;;;;;;;;;;;;;;17.24;55.01;100829.00;5015886;28;1218;-60
2022/09/21 03:23:19;;;;;;;;;;;;;;;16.67;56.38;100831.69;5016359;28;1174;-60
2022/09/21 03:25:45;;;;;;;;;;;;;;;16.48;56.40;100827.81;5016451;28;1284;-59
2022/09/21 03:28:12;;;;;;;;;;;;;;;16.26;56.45;100834.38;5016164;28;1367;-60
2022/09/21 03:30:37;;;;;;;;;;;;;;;16.18;56.33;100824.72;5016383;28;1910;-60
2022/09/21 03:33:05;;;;;;;;;;;;;;;17.17;55.32;100828.47;5015874;28;1176;-59
2022/09/21 03:35:30;;;;;;;;;;;;;;;17.06;55.46;100833.94;5016118;28;1232;-60
2022/09/21 03:37:56;;;;;;;;;;;;;;;16.57;56.62;100839.94;5016471;28;1128;-61
2022/09/21 03:40:22;;;;;;;;;;;;;;;16.41;56.43;100836.31;5015943;28;1124;-61
2022/09/21 03:42:47;;;;;;;;;;;;;;;16.22;56.28;100836.81;5016004;28;1207;-62
2022/09/21 03:45:13;;;;;;;;;;;;;;;17.02;55.98;100832.03;5015731;28;1175;-60
2022/09/21 03:47:38;;;;;;;;;;;;;;;17.36;54.96;100831.44;5016144;28;1210;-60
2022/09/21 03:50:04;;;;;;;;;;;;;;;16.72;56.40;100845.44;5016196;28;1914;-62
2022/09/21 03:52:30;;;;;;;;;;;;;;;16.48;56.35;100844.28;5014968;28;1211;-59
2022/09/21 03:54:55;;;;;;;;;;;;;;;16.32;56.50;100844.25;5022129;28;1494;-60
2022/09/21 03:57:21;;;;;;;;;;;;;;;17.31;55.45;100842.47;5024092;28;1394;-60
2022/09/21 03:59:47;;;;;;;;;;;;;;;17.19;55.38;100843.56;5023695;28;1229;-60
2022/09/21 04:02:13;;;;;;;;;;;;;;;16.66;56.48;100852.03;5025848;28;1351;-60
2022/09/21 04:04:39;;;;;;;;;;;;;;;16.43;56.72;100859.66;5026743;28;1021;-60
2022/09/21 04:07:04;;;;;;;;;;;;;;;16.35;56.51;100854.69;5015507;28;1112;-60
2022/09/21 04:09:30;;;;;;;;;;;;;;;16.34;56.54;100866.78;5017659;28;1913;-59
2022/09/21 04:11:55;;;;;;;;;;;;;;;17.69;54.17;100860.25;5030349;28;1177;-62
2022/09/21 04:14:22;;;;;;;;;;;;;;;16.80;56.35;100862.47;5028955;28;1399;-63
2022/09/21 04:16:48;;;;;;;;;;;;;;;16.55;56.51;100861.31;5033016;28;1148;-61
2022/09/21 04:19:13;;;;;;;;;;;;;;;16.35;56.41;100862.91;5019584;28;1195;-60
2022/09/21 04:21:39;;;;;;;;;;;;;;;16.27;56.31;100862.63;5018463;28;1170;-60
2022/09/21 04:24:04;;;;;;;;;;;;;;;16.39;56.63;100861.28;5034921;28;1071;-61
2022/09/21 04:26:31;;;;;;;;;;;;;;;17.78;54.08;100852.22;5027531;28;1096;-61
2022/09/21 04:28:56;;;;;;;;;;;;;;;16.93;55.87;100857.31;5019152;28;1226;-61
2022/09/21 04:31:22;;;;;;;;;;;;;;;16.57;56.26;100853.66;5019455;28;1971;-61
2022/09/21 04:33:48;;;;;;;;;;;;;;;16.38;56.39;100858.81;5019204;28;1123;-61
2022/09/21 04:36:14;;;;;;;;;;;;;;;16.24;56.54;100864.00;5018165;28;1466;-62
2022/09/21 04:38:39;;;;;;;;;;;;;;;17.24;55.09;100850.97;5018316;28;1120;-57
2022/09/21 04:41:05;;;;;;;;;;;;;;;16.86;56.08;100869.63;5019266;28;1529;-58
2022/09/21 04:43:31;;;;;;;;;;;;;;;16.53;56.41;100869.84;5019045;28;1519;-60
2022/09/21 04:45:56;;;;;;;;;;;;;;;16.33;56.39;100870.63;5018926;28;892;-61
2022/09/21 04:48:22;;;;;;;;;;;;;;;16.22;56.33;100880.72;5019297;28;1136;-59
2022/09/21 04:50:48;;;;;;;;;;;;;;;17.60;54.40;100876.50;5018749;28;1976;-60
2022/09/21 04:53:13;;;;;;;;;;;;;;;16.98;55.87;100875.69;5018973;28;1247;-59
2022/09/21 04:55:39;;;;;;;;;;;;;;;16.60;56.31;100875.88;5017533;28;1381;-62
2022/09/21 04:58:04;;;;;;;;;;;;;;;16.46;56.24;100879.44;5011981;28;1302;-61
2022/09/21 05:00:30;;;;;;;;;;;;;;;16.25;56.52;100880.19;5007775;28;1306;-62
2022/09/21 05:02:56;;;;;;;;;;;;;;;17.73;53.77;100877.84;5015794;28;1065;-61
2022/09/21 05:05:21;;;;;;;;;;;;;;;16.95;55.59;100879.00;5009403;28;1262;-61
2022/09/21 05:07:46;;;;;;;;;;;;;;;16.60;55.94;100875.88;5015577;28;1237;-61
2022/09/21 05:10:12;;;;;;;;;;;;;;;16.45;56.30;100872.28;5009504;28;1898;-58
2022/09/21 05:12:37;;;;;;;;;;;;;;;16.26;56.35;100872.78;5015477;28;1553;-57
2022/09/21 05:15:03;;;;;;;;;;;;;;;16.22;56.09;100871.69;5028446;28;1154;-59
2022/09/21 05:17:28;;;;;;;;;;;;;;;17.58;54.04;100867.69;5018289;28;978;-64
2022/09/21 05:19:54;;;;;;;;;;;;;;;16.98;55.50;100870.19;5017908;28;1120;-61
2022/09/21 05:22:19;;;;;;;;;;;;;;;16.60;56.22;100864.91;5018111;28;1176;-62
2022/09/21 05:24:45;;;;;;;;;;;;;;;16.46;56.20;100873.94;5017155;28;1486;-60
2022/09/21 05:27:10;;;;;;;;;;;;;;;16.27;56.19;100868.13;5017635;28;1143;-61
2022/09/21 05:29:36;;;;;;;;;;;;;;;16.29;56.18;100875.00;5018118;28;1963;-62
2022/09/21 05:32:05;;;;;;;;;;;;;;;17.67;53.92;100867.13;5018600;28;1251;-62
2022/09/21 05:34:30;;;;;;;;;;;;;;;16.89;55.39;100872.69;5000182;28;843;-61
2022/09/21 05:37:02;;;;;;;;;;;;;;;16.53;56.27;100864.34;5017916;28;1164;-62
2022/09/21 05:39:28;;;;;;;;;;;;;;;16.40;56.00;100867.63;5018363;28;1191;-62
2022/09/21 05:41:54;;;;;;;;;;;;;;;17.61;53.57;100871.81;5017760;28;1156;-64
2022/09/21 05:44:20;;;;;;;;;;;;;;;16.74;53.40;100865.19;5018152;28;1133;-63
2022/09/21 05:46:51;;;;;;;;;;;;;;;16.45;52.28;100869.53;5017897;28;1176;-63
2022/09/21 05:49:43;;;;;;;;;;;;;;;17.21;53.48;100857.03;5017288;28;1965;-62
2022/09/21 05:52:21;;;;;;;;;;;;;;;16.66;51.97;100863.03;5012973;28;1446;-61
2022/09/21 05:54:46;;;;;;;;;;;;;;;18.24;52.51;100863.13;5008633;28;1188;-58
2022/09/21 05:57:14;;;;;;;;;;;;;;;17.25;52.65;100864.44;5017241;28;1215;-63
2022/09/21 05:59:46;;;;;;;;;;;;;;;16.79;51.41;100866.31;5007328;28;1208;-61
2022/09/21 06:02:31;;;;;;;;;;;;;;;16.56;50.58;100862.97;5018069;28;1148;-63
2022/09/21 06:04:56;;;;;;;;;;;;;;;17.44;52.31;100866.63;5017549;28;1156;-62
2022/09/21 06:07:22;;;;;;;;;;;;;;;16.90;51.32;100857.84;5017350;28;1135;-61
2022/09/21 06:09:47;;;;;;;;;;;;;;;16.70;50.46;100863.28;5001603;28;1902;-62
2022/09/21 06:12:13;;;;;;;;;;;;;;;17.87;51.52;100863.50;5017268;28;1112;-61
2022/09/21 06:14:38;;;;;;;;;;;;;;;17.10;51.43;100872.69;5017252;28;1148;-61
2022/09/21 06:17:03;;;;;;;;;;;;;;;17.55;52.12;100868.25;5004115;28;1120;-60
2022/09/21 06:19:29;;;;;;;;;;;;;;;17.83;52.11;100876.16;5017018;28;1211;-63
2022/09/21 06:21:54;;;;;;;;;;;;;;;17.28;50.84;100868.56;5017112;28;1120;-61
2022/09/21 06:24:20;;;;;;;;;;;;;;;17.00;50.05;100867.19;5017534;28;1124;-62
2022/09/21 06:26:45;;;;;;;;;;;;;;;17.40;51.04;100868.28;5017030;28;1255;-60
2022/09/21 06:29:11;;;;;;;;;;;;;;;17.24;50.68;100873.78;5016684;28;1898;-58
2022/09/21 06:31:36;;;;;;;;;;;;;;;17.06;49.79;100872.41;5017445;28;1140;-62
2022/09/21 06:34:01;;;;;;;;;;;;;;;16.83;48.75;100859.19;5016402;28;1129;-61
2022/09/21 06:36:27;;;;;;;;;;;;;;;18.07;50.18;100865.38;5016792;28;1251;-61
2022/09/21 06:38:52;;;;;;;;;;;;;;;17.17;50.51;100876.00;5017287;28;1119;-61
2022/09/21 06:41:18;;;;;;;;;;;;;;;17.00;49.58;100873.50;5016770;28;1080;-60
2022/09/21 06:43:43;;;;;;;;;;;;;;;17.22;49.65;100875.16;5008863;28;1295;-60
2022/09/21 06:46:09;;;;;;;;;;;;;;;17.64;50.49;100874.00;5005785;28;1311;-61
2022/09/21 06:48:34;;;;;;;;;;;;;;;17.12;50.13;100875.97;5016134;28;1236;-59
2022/09/21 06:51:00;;;;;;;;;;;;;;;16.95;49.01;100870.75;5016021;28;1980;-59
2022/09/21 06:53:26;;;;;;;;;;;;;;;16.82;48.62;100871.28;5016789;28;1227;-58
2022/09/21 06:55:51;;;;;;;;;;;;;;;18.00;49.38;100857.41;5015531;28;1165;-61
2022/09/21 06:58:18;;;;;;;;;;;;;;;17.23;49.59;100865.81;5011863;28;1265;-61
2022/09/21 07:00:43;;;;;;;;;;;;;;;16.98;49.12;100867.47;5016402;28;1189;-59
2022/09/21 07:03:09;;;;;;;;;;;;;;;17.86;49.19;100862.66;5015228;28;1148;-61
2022/09/21 07:05:35;;;;;;;;;;;;;;;17.28;49.52;100863.88;5005624;28;1109;-61
2022/09/21 07:08:00;;;;;;;;;;;;;;;17.02;48.93;100857.56;5016366;28;989;-60
2022/09/21 07:10:26;;;;;;;;;;;;;;;17.85;49.16;100868.44;5015707;28;1914;-60
2022/09/21 07:12:51;;;;;;;;;;;;;;;17.23;49.41;100866.63;5016680;28;1140;-60
2022/09/21 07:15:18;;;;;;;;;;;;;;;17.04;48.71;100871.88;4999220;28;1013;-60
2022/09/21 07:17:43;;;;;;;;;;;;;;;16.88;48.21;100871.03;5014914;28;1190;-60
2022/09/21 07:20:09;;;;;;;;;;;;;;;17.67;48.93;100859.72;5015778;28;1278;-61
2022/09/21 07:22:34;;;;;;;;;;;;;;;17.11;48.85;100868.84;5015502;28;1349;-60
2022/09/21 07:25:00;;;;;;;;;;;;;;;16.98;48.10;100867.47;5016093;28;1124;-62
2022/09/21 07:27:26;;;;;;;;;;;;;;;17.71;48.96;100858.06;5020173;28;1410;-61
2022/09/21 07:29:52;;;;;;;;;;;;;;;17.47;49.38;100859.75;5020146;28;1946;-61
2022/09/21 07:32:17;;;;;;;;;;;;;;;17.08;48.90;100866.63;5021146;28;1210;-61
2022/09/21 07:34:43;;;;;;;;;;;;;;;17.08;48.01;100852.91;5010181;28;1128;-60
2022/09/21 07:37:08;;;;;;;;;;;;;;;18.30;48.43;100858.41;5015394;28;1203;-61
2022/09/21 07:39:34;;;;;;;;;;;;;;;17.59;49.26;100861.09;5018379;28;1255;-61
2022/09/21 07:42:00;;;;;;;;;;;;;;;17.21;48.82;100851.53;5028957;28;1473;-62
2022/09/21 07:44:26;;;;;;;;;;;;;;;17.63;49.15;100858.63;5019606;28;1095;-61
2022/09/21 07:46:51;;;;;;;;;;;;;;;17.55;48.99;100851.75;5017083;28;1395;-60
2022/09/21 07:49:16;;;;;;;;;;;;;;;17.24;48.76;100849.06;5019782;28;1934;-61
2022/09/21 07:51:42;;;;;;;;;;;;;;;18.09;48.62;100849.41;5019700;28;1210;-59
2022/09/21 07:54:08;;;;;;;;;;;;;;;17.39;49.30;100845.47;5025307;28;981;-61
2022/09/21 07:56:35;;;;;;;;;;;;;;;17.26;48.47;100848.78;5019958;28;1211;-61
2022/09/21 07:59:06;;;;;;;;;;;;;;;17.13;47.76;100844.66;5019665;28;1171;-60
2022/09/21 08:01:35;;;;;;;;;;;;;;;17.70;48.93;100845.41;5023715;28;1042;-62
2022/09/21 08:04:02;;;;;;;;;;;;;;;17.31;48.37;100846.03;5021181;28;1107;-59
2022/09/21 08:06:29;;;;;;;;;;;;;;;18.16;48.44;100843.59;5019447;28;1190;-60
2022/09/21 08:08:54;;;;;;;;;;;;;;;17.56;49.14;100841.59;5021850;28;989;-62
2022/09/21 08:11:21;;;;;;;;;;;;;;;17.30;48.56;100838.88;5020224;28;1910;-59
2022/09/21 08:13:47;;;;;;;;;;;;;;;17.21;47.91;100844.13;5022281;28;1189;-59
2022/09/21 08:16:12;;;;;;;;;;;;;;;17.97;48.39;100838.72;5017733;28;1129;-61
2022/09/21 08:18:38;;;;;;;;;;;;;;;17.54;48.78;100839.09;5025413;28;1152;-61
2022/09/21 08:21:04;;;;;;;;;;;;;;;17.40;48.20;100838.03;5031569;28;1173;-60
2022/09/21 08:23:29;;;;;;;;;;;;;;;17.22;47.64;100836.69;5028071;28;1177;-60
2022/09/21 08:25:59;;;;;;;;;;;;;;;17.08;47.41;100845.50;5021121;28;1259;-61
2022/09/21 08:28:25;;;;;;;;;;;;;;;17.02;46.81;100838.34;5019416;28;1176;-61
2022/09/21 08:30:50;;;;;;;;;;;;;;;17.92;47.45;100827.75;5018543;28;1918;-61
2022/09/21 08:33:16;;;;;;;;;;;;;;;17.38;48.10;100834.75;5018046;28;1196;-58
2022/09/21 08:35:41;;;;;;;;;;;;;;;17.06;47.72;100839.44;5001944;28;1187;-58
2022/09/21 08:38:06;;;;;;;;;;;;;;;17.07;47.54;100832.84;5019366;28;1127;-60
2022/09/21 08:40:33;;;;;;;;;;;;;;;17.56;48.05;100833.34;5018528;28;1151;-59
2022/09/21 08:43:02;;;;;;;;;;;;;;;17.19;48.03;100831.75;5018613;28;965;-61
2022/09/21 08:45:36;;;;;;;;;;;;;;;17.10;47.60;100832.28;5003796;28;1163;-61
2022/09/21 08:48:02;;;;;;;;;;;;;;;17.67;48.42;100831.38;5018302;28;940;-60
2022/09/21 08:50:36;;;;;;;;;;;;;;;17.21;48.34;100830.38;5001427;28;1973;-61
2022/09/21 08:53:11;;;;;;;;;;;;;;;17.18;47.80;100830.09;5001477;28;1174;-61
2022/09/21 08:55:36;;;;;;;;;;;;;;;17.99;48.02;100828.25;5018851;28;1132;-60
2022/09/21 08:58:02;;;;;;;;;;;;;;;17.44;48.37;100817.13;5017945;28;1196;-61
2022/09/21 09:00:28;;;;;;;;;;;;;;;17.21;47.55;100818.56;5001468;28;1738;-62
2022/09/21 09:02:53;;;;;;;;;;;;;;;17.07;47.41;100819.13;5004221;28;1596;-61
2022/09/21 09:05:19;;;;;;;;;;;;;;;17.56;47.93;100811.34;5017423;28;1203;-61
2022/09/21 09:07:52;;;;;;;;;;;;;;;17.67;48.32;100804.72;5007064;28;1286;-61
2022/09/21 09:10:27;;;;;;;;;;;;;;;17.31;48.14;100802.06;5017042;28;1902;-60
2022/09/21 09:12:56;;;;;;;;;;;;;;;17.22;47.21;100798.22;5015693;28;1231;-61
2022/09/21 09:15:36;;;;;;;;;;;;;;;17.56;47.68;100794.84;5006453;28;1124;-61
2022/09/21 09:18:10;;;;;;;;;;;;;;;15.96;53.33;100802.97;5016471;28;1256;-61
2022/09/21 09:20:36;;;;;;;;;;;;;;;17.15;52.02;100805.91;5000220;28;1176;-61
2022/09/21 09:23:08;;;;;;;;;;;;;;;18.87;48.95;100787.25;5003473;28;1478;-61
2022/09/21 09:25:36;;;;;;;;;;;;;;;14.62;59.20;100787.56;5005176;28;1367;-61
2022/09/21 09:28:04;;;;;;;;;;;;;;;17.95;52.28;100784.00;5013787;28;1148;-61
2022/09/21 09:30:30;;;;;;;;;;;;;;;15.85;56.91;100787.59;5008470;28;1910;-60
2022/09/21 09:32:59;;;;;;;;;;;;;;;15.84;54.76;100783.22;5018182;28;1148;-60
2022/09/21 09:35:44;;;;;;;;;;;;;;;17.22;52.60;100789.97;5018049;28;1203;-60
2022/09/21 09:38:22;;;;;;;;;;;;;;;17.36;51.91;100787.47;4996742;28;1346;-61
2022/09/21 09:41:00;;;;;;;;;;;;;;;17.09;50.23;100777.63;5006411;28;1225;-63
2022/09/21 09:43:45;;;;;;;;;;;;;;;16.96;49.38;100784.50;5010728;28;1342;-61
2022/09/21 09:46:16;;;;;;;;;;;;;;;17.72;50.05;100779.94;5012857;28;1129;-60
2022/09/21 09:48:51;;;;;;;;;;;;;;;17.22;50.01;100778.97;5017766;28;863;-61
2022/09/21 09:51:18;;;;;;;;;;;;;;;17.15;48.54;100778.44;5017644;28;1981;-58
2022/09/21 09:53:43;;;;;;;;;;;;;;;16.94;48.44;100770.22;5017897;28;1108;-59
2022/09/21 09:56:09;;;;;;;;;;;;;;;17.51;48.98;100759.13;5012956;28;1168;-59
2022/09/21 09:58:35;;;;;;;;;;;;;;;17.55;49.58;100765.72;5016504;28;866;-59
2022/09/21 10:01:01;;;;;;;;;;;;;;;17.17;49.05;100762.53;5016867;28;837;-59
2022/09/21 10:03:26;;;;;;;;;;;;;;;17.08;48.33;100765.81;4986456;28;1124;-60
2022/09/21 10:05:52;;;;;;;;;;;;;;;17.01;47.69;100769.94;5017411;28;1136;-59
2022/09/21 10:08:27;;;;;;;;;;;;;;;16.92;47.12;100762.25;5017113;28;1129;-60
2022/09/21 10:10:53;;;;;;;;;;;;;;;16.75;46.96;100751.53;5000217;28;1982;-60
2022/09/21 10:13:22;;;;;;;;;;;;;;;16.81;46.68;100760.59;5017705;28;1113;-60
2022/09/21 10:15:48;;;;;;;;;;;;;;;17.40;48.07;100753.66;4999390;28;1312;-60
2022/09/21 10:18:15;;;;;;;;;;;;;;;17.06;48.16;100748.78;5000070;28;1183;-61
2022/09/21 10:20:51;;;;;;;;;;;;;;;17.82;48.33;100745.25;5009720;28;1112;-61
2022/09/21 10:23:16;;;;;;;;;;;;;;;17.37;48.65;100740.47;5017015;28;1187;-61
2022/09/21 10:25:42;;;;;;;;;;;;;;;17.03;48.15;100746.59;5000349;28;1185;-62
2022/09/21 10:28:08;;;;;;;;;;;;;;;18.13;48.04;100734.91;4991683;28;1333;-60
2022/09/21 10:30:37;;;;;;;;;;;;;;;17.40;48.67;100739.94;5015182;28;1955;-62
2022/09/21 10:33:02;;;;;;;;;;;;;;;17.28;47.81;100733.91;5017516;28;1119;-59
2022/09/21 10:35:29;;;;;;;;;;;;;;;17.01;47.69;100739.72;5015760;28;1143;-60
2022/09/21 10:38:10;;;;;;;;;;;;;;;16.91;47.20;100726.81;5013077;28;1292;-61
2022/09/21 10:40:36;;;;;;;;;;;;;;;17.91;47.89;100729.81;5013981;28;1141;-60
2022/09/21 10:43:01;;;;;;;;;;;;;;;17.47;48.28;100727.78;5017091;28;1132;-60
2022/09/21 10:45:27;;;;;;;;;;;;;;;17.13;48.33;100744.94;5016845;28;1112;-59
2022/09/21 10:48:05;;;;;;;;;;;;;;;17.10;47.50;100735.31;5016258;28;977;-58
2022/09/21 10:50:38;;;;;;;;;;;;;;;17.04;46.78;100736.41;5016755;28;1963;-61
2022/09/21 10:53:09;;;;;;;;;;;;;;;17.36;47.29;100738.84;4995923;28;1148;-58
2022/09/21 10:55:38;;;;;;;;;;;;;;;17.53;48.15;100729.41;5016687;28;1203;-60
2022/09/21 10:58:07;;;;;;;;;;;;;;;17.21;48.27;100725.94;5015428;28;1191;-59
2022/09/21 11:00:39;;;;;;;;;;;;;;;17.14;47.29;100728.16;5016298;28;1120;-59
2022/09/21 11:03:23;;;;;;;;;;;;;;;17.04;47.01;100730.91;5016637;28;1199;-59
2022/09/21 11:05:49;;;;;;;;;;;;;;;16.83;46.68;100732.84;5016518;28;1311;-60
2022/09/21 11:08:38;;;;;;;;;;;;;;;17.67;47.59;100733.22;5016179;28;1002;-60
2022/09/21 11:11:30;;;;;;;;;;;;;;;17.02;47.65;100733.94;5013461;28;1972;-59
2022/09/21 11:14:15;;;;;;;;;;;;;;;17.39;47.78;100740.19;5012660;28;1013;-59
2022/09/21 11:16:44;;;;;;;;;;;;;;;17.28;48.13;100737.47;5005669;28;977;-60
2022/09/21 11:19:22;;;;;;;;;;;;;;;17.19;47.51;100730.88;5016533;28;1123;-60
2022/09/21 11:21:47;;;;;;;;;;;;;;;17.02;46.88;100736.69;5015629;28;1100;-59
2022/09/21 11:24:13;;;;;;;;;;;;;;;17.99;47.40;100728.41;5016208;28;1163;-59
2022/09/21 11:26:44;;;;;;;;;;;;;;;17.52;48.37;100730.53;5016614;28;1147;-60
2022/09/21 11:29:22;;;;;;;;;;;;;;;17.27;47.87;100735.00;5015616;28;1065;-59
2022/09/21 11:31:52;;;;;;;;;;;;;;;18.04;47.84;100742.94;4998946;28;1290;-59
2022/09/21 11:34:45;;;;;;;;;;;;;;;17.44;48.16;100753.91;5002878;28;1231;-59
2022/09/21 11:37:25;;;;;;;;;;;;;;;17.14;47.54;100757.56;5013233;28;1105;-59
2022/09/21 11:40:26;;;;;;;;;;;;;;;17.93;48.04;100769.69;5004794;28;1152;-57
2022/09/21 11:42:51;;;;;;;;;;;;;;;17.26;48.17;100769.91;4923896;29;1241;-59
2022/09/21 11:45:24;;;;;;;;;;;;;;;17.05;47.68;100771.84;4998992;28;1285;-59
2022/09/21 11:47:49;;;;;;;;;;;;;;;16.97;46.94;100782.59;4999172;28;1175;-59
2022/09/21 11:50:19;;;;;;;;;;;;;;;17.50;47.62;100804.19;5015686;28;1886;-61
2022/09/21 11:53:04;;;;;;;;;;;;;;;17.32;48.02;100800.13;4998627;28;1120;-60
2022/09/21 11:55:43;;;;;;;;;;;;;;;17.06;47.34;100800.97;5000107;28;1076;-59
2022/09/21 11:58:17;;;;;;;;;;;;;;;17.27;47.70;100807.25;5015900;28;1104;-59
2022/09/21 12:00:47;;;;;;;;;;;;;;;17.57;48.19;100811.06;4997536;28;1167;-59
2022/09/21 12:03:27;;;;;;;;;;;;;;;17.08;48.22;100804.28;4998779;28;1210;-59
2022/09/21 12:06:10;;;;;;;;;;;;;;;17.85;47.70;100816.19;4999090;28;1166;-59
2022/09/21 12:08:54;;;;;;;;;;;;;;;17.42;48.15;100809.19;5015537;28;1272;-58
2022/09/21 12:11:22;;;;;;;;;;;;;;;17.17;47.33;100792.75;5015679;28;1909;-58
2022/09/21 12:14:00;;;;;;;;;;;;;;;17.05;46.87;100799.31;5014390;28;1152;-59
2022/09/21 12:16:34;;;;;;;;;;;;;;;17.84;47.49;100820.03;5011002;28;1138;-59
2022/09/21 12:19:19;;;;;;;;;;;;;;;17.36;47.57;100807.56;5016197;28;1127;-60
2022/09/21 12:21:46;;;;;;;;;;;;;;;17.09;47.15;100811.41;5015365;28;1207;-58
2022/09/21 12:24:20;;;;;;;;;;;;;;;17.86;47.87;100817.84;5015841;28;1195;-59
2022/09/21 12:26:47;;;;;;;;;;;;;;;17.43;48.43;100788.84;4998249;28;922;-59
2022/09/21 12:29:18;;;;;;;;;;;;;;;18.03;48.36;100782.56;5015152;28;1224;-59
2022/09/21 12:31:59;;;;;;;;;;;;;;;16.25;54.07;100786.06;5014918;28;1914;-60
2022/09/21 12:34:26;;;;;;;;;;;;;;;16.31;52.12;100781.41;5019499;28;969;-59
2022/09/21 12:36:54;;;;;;;;;;;;;;;16.87;49.97;100764.16;5000932;28;1219;-59
2022/09/21 12:39:31;;;;;;;;;;;;;;;17.30;50.22;100739.13;5019709;28;973;-60
2022/09/21 12:42:20;;;;;;;;;;;;;;;17.06;48.84;100740.53;5017960;28;1271;-60
2022/09/21 12:44:56;;;;;;;;;;;;;;;16.96;48.33;100746.06;4998727;28;1316;-60
2022/09/21 12:47:27;;;;;;;;;;;;;;;17.43;48.87;100753.09;5001843;28;1155;-60
2022/09/21 12:49:54;;;;;;;;;;;;;;;17.01;48.53;100759.81;5012130;28;1914;-60
2022/09/21 12:52:21;;;;;;;;;;;;;;;17.22;48.41;100770.72;5004343;28;985;-59
2022/09/21 12:54:58;;;;;;;;;;;;;;;17.70;48.74;100773.91;5019151;28;1207;-60